In Rescue
 
Open Full Screen Window  High Contrast Mode
November 20, 2019 3:28 AM EST
Present Weather: Mist
Weather Information
Wind Direction
  ---
Wind Speed
  00 kt (0 mph)
Wind Gust
  00 kt (0 mph)
Altimeter
30.02 in
Visibility
3 SM
Temperature
01° C
34° F
Dewpoint
00° C
32° F
Humidity
93%
Sky Condition
Overcast @ 3,800 ft
MVFR

METAR KPHN 200828Z AUTO 00000KT 3SM BR OVC038 01/00 A3002 RMK AO2

FAA Disclaimer: The data displayed is for advisory purposes only and is not to be used for flight planning or operations.